sensor_id;sensor_type;location;lat;lon;timestamp;P1;durP1;ratioP1;P2;durP2;ratioP2
18881;SDS011;9573;50.948;11.600;2023-12-20T00:01:01;2.00;;;1.47;;
18881;SDS011;9573;50.948;11.600;2023-12-20T00:03:28;1.63;;;1.10;;
18881;SDS011;9573;50.948;11.600;2023-12-20T00:05:55;1.97;;;1.40;;
18881;SDS011;9573;50.948;11.600;2023-12-20T00:08:23;3.03;;;1.90;;
18881;SDS011;9573;50.948;11.600;2023-12-20T00:10:51;3.60;;;2.00;;
18881;SDS011;9573;50.948;11.600;2023-12-20T00:13:18;3.07;;;1.70;;
18881;SDS011;9573;50.948;11.600;2023-12-20T00:15:45;3.20;;;1.97;;
18881;SDS011;9573;50.948;11.600;2023-12-20T00:18:12;4.07;;;2.20;;
18881;SDS011;9573;50.948;11.600;2023-12-20T00:20:39;5.00;;;2.10;;
18881;SDS011;9573;50.948;11.600;2023-12-20T00:23:06;2.07;;;1.73;;
18881;SDS011;9573;50.948;11.600;2023-12-20T00:25:34;5.70;;;2.07;;
18881;SDS011;9573;50.948;11.600;2023-12-20T00:28:02;3.27;;;1.60;;
18881;SDS011;9573;50.948;11.600;2023-12-20T00:30:30;3.20;;;1.90;;
18881;SDS011;9573;50.948;11.600;2023-12-20T00:32:57;3.13;;;2.00;;
18881;SDS011;9573;50.948;11.600;2023-12-20T00:35:24;4.40;;;1.90;;
18881;SDS011;9573;50.948;11.600;2023-12-20T00:37:51;2.17;;;1.60;;
18881;SDS011;9573;50.948;11.600;2023-12-20T00:40:18;3.23;;;1.70;;
18881;SDS011;9573;50.948;11.600;2023-12-20T00:42:45;2.43;;;1.77;;
18881;SDS011;9573;50.948;11.600;2023-12-20T00:45:14;3.83;;;2.20;;
18881;SDS011;9573;50.948;11.600;2023-12-20T00:47:41;5.27;;;2.60;;
18881;SDS011;9573;50.948;11.600;2023-12-20T00:50:08;4.93;;;2.63;;
18881;SDS011;9573;50.948;11.600;2023-12-20T00:52:36;5.27;;;2.80;;
18881;SDS011;9573;50.948;11.600;2023-12-20T00:55:03;5.33;;;2.90;;
18881;SDS011;9573;50.948;11.600;2023-12-20T00:57:31;5.77;;;2.83;;
18881;SDS011;9573;50.948;11.600;2023-12-20T00:59:58;3.57;;;2.33;;
18881;SDS011;9573;50.948;11.600;2023-12-20T01:02:27;3.73;;;2.10;;
18881;SDS011;9573;50.948;11.600;2023-12-20T01:04:54;2.03;;;1.57;;
18881;SDS011;9573;50.948;11.600;2023-12-20T01:07:21;1.70;;;1.50;;
18881;SDS011;9573;50.948;11.600;2023-12-20T01:09:48;1.23;;;0.93;;
18881;SDS011;9573;50.948;11.600;2023-12-20T01:12:15;1.20;;;0.80;;
18881;SDS011;9573;50.948;11.600;2023-12-20T01:14:42;1.87;;;1.60;;
18881;SDS011;9573;50.948;11.600;2023-12-20T01:17:09;3.87;;;1.47;;
18881;SDS011;9573;50.948;11.600;2023-12-20T01:19:39;1.20;;;1.00;;
18881;SDS011;9573;50.948;11.600;2023-12-20T01:22:06;1.20;;;1.10;;
18881;SDS011;9573;50.948;11.600;2023-12-20T01:24:33;3.00;;;0.90;;
18881;SDS011;9573;50.948;11.600;2023-12-20T01:27:00;1.10;;;0.97;;
18881;SDS011;9573;50.948;11.600;2023-12-20T01:29:27;1.73;;;0.90;;
18881;SDS011;9573;50.948;11.600;2023-12-20T01:31:54;1.93;;;1.00;;
18881;SDS011;9573;50.948;11.600;2023-12-20T01:34:21;1.07;;;1.03;;
18881;SDS011;9573;50.948;11.600;2023-12-20T01:36:50;1.20;;;1.10;;
18881;SDS011;9573;50.948;11.600;2023-12-20T01:39:17;0.93;;;0.90;;
18881;SDS011;9573;50.948;11.600;2023-12-20T01:41:44;2.27;;;0.97;;
18881;SDS011;9573;50.948;11.600;2023-12-20T01:44:11;1.87;;;1.30;;
18881;SDS011;9573;50.948;11.600;2023-12-20T01:46:39;0.87;;;0.87;;
18881;SDS011;9573;50.948;11.600;2023-12-20T01:49:07;1.00;;;0.73;;
18881;SDS011;9573;50.948;11.600;2023-12-20T01:51:34;1.33;;;1.00;;
18881;SDS011;9573;50.948;11.600;2023-12-20T01:54:04;2.73;;;0.90;;
18881;SDS011;9573;50.948;11.600;2023-12-20T01:56:31;1.97;;;0.70;;
18881;SDS011;9573;50.948;11.600;2023-12-20T01:58:59;1.50;;;0.90;;
18881;SDS011;9573;50.948;11.600;2023-12-20T02:01:27;0.83;;;0.83;;
18881;SDS011;9573;50.948;11.600;2023-12-20T02:03:55;1.63;;;0.50;;
18881;SDS011;9573;50.948;11.600;2023-12-20T02:06:23;1.23;;;0.70;;
18881;SDS011;9573;50.948;11.600;2023-12-20T02:08:51;0.73;;;0.70;;
18881;SDS011;9573;50.948;11.600;2023-12-20T02:11:19;0.70;;;0.70;;
18881;SDS011;9573;50.948;11.600;2023-12-20T02:13:47;0.63;;;0.63;;
18881;SDS011;9573;50.948;11.600;2023-12-20T02:16:14;0.97;;;0.83;;
18881;SDS011;9573;50.948;11.600;2023-12-20T02:18:41;1.20;;;0.60;;
18881;SDS011;9573;50.948;11.600;2023-12-20T02:21:09;0.70;;;0.63;;
18881;SDS011;9573;50.948;11.600;2023-12-20T02:23:38;0.70;;;0.70;;
18881;SDS011;9573;50.948;11.600;2023-12-20T02:26:05;1.63;;;0.90;;
18881;SDS011;9573;50.948;11.600;2023-12-20T02:28:32;0.80;;;0.70;;
18881;SDS011;9573;50.948;11.600;2023-12-20T02:31:01;4.00;;;0.90;;
18881;SDS011;9573;50.948;11.600;2023-12-20T02:33:28;1.20;;;0.90;;
18881;SDS011;9573;50.948;11.600;2023-12-20T02:35:56;0.87;;;0.87;;
18881;SDS011;9573;50.948;11.600;2023-12-20T02:38:23;1.13;;;0.93;;
18881;SDS011;9573;50.948;11.600;2023-12-20T02:40:52;2.70;;;1.30;;
18881;SDS011;9573;50.948;11.600;2023-12-20T02:43:19;1.83;;;0.97;;
18881;SDS011;9573;50.948;11.600;2023-12-20T02:45:46;0.60;;;0.60;;
18881;SDS011;9573;50.948;11.600;2023-12-20T02:48:13;0.83;;;0.83;;
18881;SDS011;9573;50.948;11.600;2023-12-20T02:50:40;2.20;;;0.47;;
18881;SDS011;9573;50.948;11.600;2023-12-20T02:53:07;1.80;;;0.63;;
18881;SDS011;9573;50.948;11.600;2023-12-20T02:55:34;1.53;;;0.50;;
18881;SDS011;9573;50.948;11.600;2023-12-20T02:58:02;0.67;;;0.47;;
18881;SDS011;9573;50.948;11.600;2023-12-20T03:00:30;0.87;;;0.40;;
18881;SDS011;9573;50.948;11.600;2023-12-20T03:02:57;0.40;;;0.40;;
18881;SDS011;9573;50.948;11.600;2023-12-20T03:05:24;0.50;;;0.50;;
18881;SDS011;9573;50.948;11.600;2023-12-20T03:07:52;0.50;;;0.50;;
18881;SDS011;9573;50.948;11.600;2023-12-20T03:10:19;0.60;;;0.60;;
18881;SDS011;9573;50.948;11.600;2023-12-20T03:12:46;0.30;;;0.30;;
18881;SDS011;9573;50.948;11.600;2023-12-20T03:15:14;0.67;;;0.50;;
18881;SDS011;9573;50.948;11.600;2023-12-20T03:17:41;0.97;;;0.40;;
18881;SDS011;9573;50.948;11.600;2023-12-20T03:20:09;0.87;;;0.40;;
18881;SDS011;9573;50.948;11.600;2023-12-20T03:22:36;0.30;;;0.30;;
18881;SDS011;9573;50.948;11.600;2023-12-20T03:25:03;2.17;;;0.60;;
18881;SDS011;9573;50.948;11.600;2023-12-20T03:27:31;0.27;;;0.27;;
18881;SDS011;9573;50.948;11.600;2023-12-20T03:29:58;0.20;;;0.20;;
18881;SDS011;9573;50.948;11.600;2023-12-20T03:32:26;0.20;;;0.20;;
18881;SDS011;9573;50.948;11.600;2023-12-20T03:34:53;0.40;;;0.40;;
18881;SDS011;9573;50.948;11.600;2023-12-20T03:37:21;0.40;;;0.40;;
18881;SDS011;9573;50.948;11.600;2023-12-20T03:39:48;0.53;;;0.40;;
18881;SDS011;9573;50.948;11.600;2023-12-20T03:42:15;1.60;;;0.23;;
18881;SDS011;9573;50.948;11.600;2023-12-20T03:44:43;0.40;;;0.40;;
18881;SDS011;9573;50.948;11.600;2023-12-20T03:47:10;0.30;;;0.30;;
18881;SDS011;9573;50.948;11.600;2023-12-20T03:49:38;0.57;;;0.30;;
18881;SDS011;9573;50.948;11.600;2023-12-20T03:52:06;0.40;;;0.40;;
18881;SDS011;9573;50.948;11.600;2023-12-20T03:54:33;2.77;;;0.50;;
18881;SDS011;9573;50.948;11.600;2023-12-20T03:57:01;0.30;;;0.30;;
18881;SDS011;9573;50.948;11.600;2023-12-20T03:59:28;0.40;;;0.40;;
18881;SDS011;9573;50.948;11.600;2023-12-20T04:01:56;0.20;;;0.20;;
18881;SDS011;9573;50.948;11.600;2023-12-20T04:04:23;1.03;;;0.40;;
18881;SDS011;9573;50.948;11.600;2023-12-20T04:06:51;0.60;;;0.60;;
18881;SDS011;9573;50.948;11.600;2023-12-20T04:09:18;0.70;;;0.50;;
18881;SDS011;9573;50.948;11.600;2023-12-20T04:11:45;0.40;;;0.40;;
18881;SDS011;9573;50.948;11.600;2023-12-20T04:14:12;0.33;;;0.33;;
18881;SDS011;9573;50.948;11.600;2023-12-20T04:16:39;0.40;;;0.40;;
18881;SDS011;9573;50.948;11.600;2023-12-20T04:19:07;0.40;;;0.40;;
18881;SDS011;9573;50.948;11.600;2023-12-20T04:21:34;0.33;;;0.30;;
18881;SDS011;9573;50.948;11.600;2023-12-20T04:24:03;0.40;;;0.40;;
18881;SDS011;9573;50.948;11.600;2023-12-20T04:26:30;0.50;;;0.50;;
18881;SDS011;9573;50.948;11.600;2023-12-20T04:28:57;0.70;;;0.57;;
18881;SDS011;9573;50.948;11.600;2023-12-20T04:31:24;0.30;;;0.30;;
18881;SDS011;9573;50.948;11.600;2023-12-20T04:33:51;0.37;;;0.30;;
18881;SDS011;9573;50.948;11.600;2023-12-20T04:36:18;0.53;;;0.53;;
18881;SDS011;9573;50.948;11.600;2023-12-20T04:38:46;0.30;;;0.30;;
18881;SDS011;9573;50.948;11.600;2023-12-20T04:41:14;0.50;;;0.50;;
18881;SDS011;9573;50.948;11.600;2023-12-20T04:43:43;0.53;;;0.50;;
18881;SDS011;9573;50.948;11.600;2023-12-20T04:46:10;3.40;;;0.63;;
18881;SDS011;9573;50.948;11.600;2023-12-20T04:48:38;1.17;;;0.70;;
18881;SDS011;9573;50.948;11.600;2023-12-20T04:51:05;0.73;;;0.60;;
18881;SDS011;9573;50.948;11.600;2023-12-20T04:53:32;0.60;;;0.57;;
18881;SDS011;9573;50.948;11.600;2023-12-20T04:55:59;1.13;;;0.57;;
18881;SDS011;9573;50.948;11.600;2023-12-20T04:58:28;0.83;;;0.60;;
18881;SDS011;9573;50.948;11.600;2023-12-20T05:00:55;1.70;;;0.47;;
18881;SDS011;9573;50.948;11.600;2023-12-20T05:03:22;1.40;;;0.77;;
18881;SDS011;9573;50.948;11.600;2023-12-20T05:05:49;0.77;;;0.60;;
18881;SDS011;9573;50.948;11.600;2023-12-20T05:08:16;1.90;;;1.07;;
18881;SDS011;9573;50.948;11.600;2023-12-20T05:10:43;1.23;;;1.10;;
18881;SDS011;9573;50.948;11.600;2023-12-20T05:13:10;1.60;;;0.93;;
18881;SDS011;9573;50.948;11.600;2023-12-20T05:15:38;2.40;;;1.07;;
18881;SDS011;9573;50.948;11.600;2023-12-20T05:18:06;1.13;;;0.90;;
18881;SDS011;9573;50.948;11.600;2023-12-20T05:20:33;2.33;;;1.10;;
18881;SDS011;9573;50.948;11.600;2023-12-20T05:23:00;12.33;;;4.87;;
18881;SDS011;9573;50.948;11.600;2023-12-20T05:25:27;2.97;;;1.60;;
18881;SDS011;9573;50.948;11.600;2023-12-20T05:27:54;4.30;;;1.80;;
18881;SDS011;9573;50.948;11.600;2023-12-20T05:30:22;11.77;;;3.63;;
18881;SDS011;9573;50.948;11.600;2023-12-20T05:32:50;2.57;;;1.90;;
18881;SDS011;9573;50.948;11.600;2023-12-20T05:35:17;3.00;;;1.63;;
18881;SDS011;9573;50.948;11.600;2023-12-20T05:37:44;2.37;;;1.57;;
18881;SDS011;9573;50.948;11.600;2023-12-20T05:40:11;7.17;;;2.73;;
18881;SDS011;9573;50.948;11.600;2023-12-20T05:42:39;3.47;;;1.87;;
18881;SDS011;9573;50.948;11.600;2023-12-20T05:45:06;4.77;;;2.27;;
18881;SDS011;9573;50.948;11.600;2023-12-20T05:47:34;8.67;;;2.73;;
18881;SDS011;9573;50.948;11.600;2023-12-20T05:50:02;8.17;;;3.13;;
18881;SDS011;9573;50.948;11.600;2023-12-20T05:52:30;16.83;;;4.83;;
18881;SDS011;9573;50.948;11.600;2023-12-20T05:54:57;10.30;;;3.73;;
18881;SDS011;9573;50.948;11.600;2023-12-20T05:57:26;22.23;;;6.90;;
18881;SDS011;9573;50.948;11.600;2023-12-20T05:59:53;2.70;;;1.80;;
18881;SDS011;9573;50.948;11.600;2023-12-20T06:02:20;6.17;;;2.60;;
18881;SDS011;9573;50.948;11.600;2023-12-20T06:04:47;8.50;;;3.07;;
18881;SDS011;9573;50.948;11.600;2023-12-20T06:07:16;9.37;;;3.00;;
18881;SDS011;9573;50.948;11.600;2023-12-20T06:09:43;10.07;;;3.80;;
18881;SDS011;9573;50.948;11.600;2023-12-20T06:12:10;11.17;;;4.27;;
18881;SDS011;9573;50.948;11.600;2023-12-20T06:14:37;6.87;;;2.80;;
18881;SDS011;9573;50.948;11.600;2023-12-20T06:17:04;4.50;;;2.40;;
18881;SDS011;9573;50.948;11.600;2023-12-20T06:19:32;5.60;;;2.30;;
18881;SDS011;9573;50.948;11.600;2023-12-20T06:21:59;8.10;;;2.63;;
18881;SDS011;9573;50.948;11.600;2023-12-20T06:24:27;15.13;;;4.60;;
18881;SDS011;9573;50.948;11.600;2023-12-20T06:26:59;23.30;;;5.80;;
18881;SDS011;9573;50.948;11.600;2023-12-20T06:29:26;17.30;;;4.33;;
18881;SDS011;9573;50.948;11.600;2023-12-20T06:31:54;7.97;;;2.57;;
18881;SDS011;9573;50.948;11.600;2023-12-20T06:34:21;6.40;;;2.47;;
18881;SDS011;9573;50.948;11.600;2023-12-20T06:36:49;3.60;;;2.20;;
18881;SDS011;9573;50.948;11.600;2023-12-20T06:39:16;4.93;;;2.40;;
18881;SDS011;9573;50.948;11.600;2023-12-20T06:41:44;5.67;;;2.17;;
18881;SDS011;9573;50.948;11.600;2023-12-20T06:44:11;13.07;;;3.13;;
18881;SDS011;9573;50.948;11.600;2023-12-20T06:46:38;10.93;;;3.00;;
18881;SDS011;9573;50.948;11.600;2023-12-20T06:49:06;5.77;;;2.43;;
18881;SDS011;9573;50.948;11.600;2023-12-20T06:51:33;6.37;;;2.10;;
18881;SDS011;9573;50.948;11.600;2023-12-20T06:54:00;5.43;;;2.60;;
18881;SDS011;9573;50.948;11.600;2023-12-20T06:56:27;5.77;;;2.30;;
18881;SDS011;9573;50.948;11.600;2023-12-20T06:58:56;5.57;;;2.40;;
18881;SDS011;9573;50.948;11.600;2023-12-20T07:01:23;9.57;;;3.23;;
18881;SDS011;9573;50.948;11.600;2023-12-20T07:03:50;7.43;;;2.90;;
18881;SDS011;9573;50.948;11.600;2023-12-20T07:06:17;4.63;;;2.40;;
18881;SDS011;9573;50.948;11.600;2023-12-20T07:08:45;4.47;;;2.30;;
18881;SDS011;9573;50.948;11.600;2023-12-20T07:11:12;5.20;;;2.80;;
18881;SDS011;9573;50.948;11.600;2023-12-20T07:13:39;6.17;;;2.63;;
18881;SDS011;9573;50.948;11.600;2023-12-20T07:16:08;4.50;;;2.60;;
18881;SDS011;9573;50.948;11.600;2023-12-20T07:18:35;5.07;;;2.93;;
18881;SDS011;9573;50.948;11.600;2023-12-20T07:21:02;10.03;;;3.50;;
18881;SDS011;9573;50.948;11.600;2023-12-20T07:23:30;6.00;;;2.90;;
18881;SDS011;9573;50.948;11.600;2023-12-20T07:25:57;7.07;;;2.83;;
18881;SDS011;9573;50.948;11.600;2023-12-20T07:28:24;6.63;;;2.57;;
18881;SDS011;9573;50.948;11.600;2023-12-20T07:30:51;8.13;;;3.07;;
18881;SDS011;9573;50.948;11.600;2023-12-20T07:33:20;10.37;;;2.70;;
18881;SDS011;9573;50.948;11.600;2023-12-20T07:35:47;11.17;;;3.10;;
18881;SDS011;9573;50.948;11.600;2023-12-20T07:38:14;7.83;;;2.47;;
18881;SDS011;9573;50.948;11.600;2023-12-20T07:40:41;9.43;;;3.50;;
18881;SDS011;9573;50.948;11.600;2023-12-20T07:43:09;8.70;;;3.03;;
18881;SDS011;9573;50.948;11.600;2023-12-20T07:45:36;12.17;;;3.80;;
18881;SDS011;9573;50.948;11.600;2023-12-20T07:48:03;10.03;;;2.80;;
18881;SDS011;9573;50.948;11.600;2023-12-20T07:50:33;14.37;;;3.50;;
18881;SDS011;9573;50.948;11.600;2023-12-20T07:53:01;12.00;;;3.53;;
18881;SDS011;9573;50.948;11.600;2023-12-20T07:55:28;9.90;;;3.40;;
18881;SDS011;9573;50.948;11.600;2023-12-20T07:57:56;10.27;;;2.90;;
18881;SDS011;9573;50.948;11.600;2023-12-20T08:00:23;6.50;;;2.50;;
18881;SDS011;9573;50.948;11.600;2023-12-20T08:02:51;8.17;;;2.67;;
18881;SDS011;9573;50.948;11.600;2023-12-20T08:05:18;6.57;;;2.50;;
18881;SDS011;9573;50.948;11.600;2023-12-20T08:07:46;10.10;;;2.87;;
18881;SDS011;9573;50.948;11.600;2023-12-20T08:10:13;8.23;;;3.00;;
18881;SDS011;9573;50.948;11.600;2023-12-20T08:12:41;8.83;;;2.93;;
18881;SDS011;9573;50.948;11.600;2023-12-20T08:15:08;7.00;;;2.77;;
18881;SDS011;9573;50.948;11.600;2023-12-20T08:17:36;12.97;;;3.20;;
18881;SDS011;9573;50.948;11.600;2023-12-20T08:20:03;7.57;;;2.63;;
18881;SDS011;9573;50.948;11.600;2023-12-20T08:22:31;8.63;;;2.90;;
18881;SDS011;9573;50.948;11.600;2023-12-20T08:25:00;7.23;;;2.80;;
18881;SDS011;9573;50.948;11.600;2023-12-20T08:27:27;7.27;;;2.53;;
18881;SDS011;9573;50.948;11.600;2023-12-20T08:29:54;4.57;;;2.30;;
18881;SDS011;9573;50.948;11.600;2023-12-20T08:32:21;9.90;;;2.70;;
18881;SDS011;9573;50.948;11.600;2023-12-20T08:34:51;10.13;;;2.77;;
18881;SDS011;9573;50.948;11.600;2023-12-20T08:37:18;6.00;;;2.87;;
18881;SDS011;9573;50.948;11.600;2023-12-20T08:39:45;8.67;;;2.77;;
18881;SDS011;9573;50.948;11.600;2023-12-20T08:42:14;8.83;;;3.00;;
18881;SDS011;9573;50.948;11.600;2023-12-20T08:44:41;6.40;;;2.50;;
18881;SDS011;9573;50.948;11.600;2023-12-20T08:47:08;7.23;;;2.93;;
18881;SDS011;9573;50.948;11.600;2023-12-20T08:49:38;6.53;;;2.90;;
18881;SDS011;9573;50.948;11.600;2023-12-20T08:52:05;6.10;;;2.27;;
18881;SDS011;9573;50.948;11.600;2023-12-20T08:54:32;12.83;;;2.90;;
18881;SDS011;9573;50.948;11.600;2023-12-20T08:56:59;7.93;;;2.10;;
18881;SDS011;9573;50.948;11.600;2023-12-20T08:59:27;6.60;;;2.43;;
18881;SDS011;9573;50.948;11.600;2023-12-20T09:01:54;7.43;;;2.53;;
18881;SDS011;9573;50.948;11.600;2023-12-20T09:04:22;7.57;;;2.60;;
18881;SDS011;9573;50.948;11.600;2023-12-20T09:06:49;5.63;;;2.63;;
18881;SDS011;9573;50.948;11.600;2023-12-20T09:09:16;6.37;;;2.57;;
18881;SDS011;9573;50.948;11.600;2023-12-20T09:11:43;11.37;;;2.87;;
18881;SDS011;9573;50.948;11.600;2023-12-20T09:14:11;9.40;;;3.00;;
18881;SDS011;9573;50.948;11.600;2023-12-20T09:16:39;8.10;;;2.80;;
18881;SDS011;9573;50.948;11.600;2023-12-20T09:19:06;9.10;;;2.97;;
18881;SDS011;9573;50.948;11.600;2023-12-20T09:21:34;8.40;;;3.00;;
18881;SDS011;9573;50.948;11.600;2023-12-20T09:24:01;10.30;;;2.70;;
18881;SDS011;9573;50.948;11.600;2023-12-20T09:26:28;9.13;;;3.00;;
18881;SDS011;9573;50.948;11.600;2023-12-20T09:28:56;11.30;;;3.20;;
18881;SDS011;9573;50.948;11.600;2023-12-20T09:31:23;9.40;;;2.87;;
18881;SDS011;9573;50.948;11.600;2023-12-20T09:33:51;8.20;;;2.73;;
18881;SDS011;9573;50.948;11.600;2023-12-20T09:36:18;10.03;;;2.73;;
18881;SDS011;9573;50.948;11.600;2023-12-20T09:38:45;8.50;;;2.77;;
18881;SDS011;9573;50.948;11.600;2023-12-20T09:41:12;6.00;;;2.40;;
18881;SDS011;9573;50.948;11.600;2023-12-20T09:43:39;5.60;;;2.63;;
18881;SDS011;9573;50.948;11.600;2023-12-20T09:46:08;10.03;;;3.37;;
18881;SDS011;9573;50.948;11.600;2023-12-20T09:48:41;7.53;;;2.87;;
18881;SDS011;9573;50.948;11.600;2023-12-20T09:51:11;6.93;;;2.33;;
18881;SDS011;9573;50.948;11.600;2023-12-20T09:53:38;10.60;;;2.50;;
18881;SDS011;9573;50.948;11.600;2023-12-20T09:56:08;14.63;;;2.63;;
18881;SDS011;9573;50.948;11.600;2023-12-20T09:58:36;8.90;;;2.30;;
18881;SDS011;9573;50.948;11.600;2023-12-20T10:01:04;6.83;;;2.10;;
18881;SDS011;9573;50.948;11.600;2023-12-20T10:03:33;6.23;;;2.00;;
18881;SDS011;9573;50.948;11.600;2023-12-20T10:06:01;8.13;;;2.60;;
18881;SDS011;9573;50.948;11.600;2023-12-20T10:08:29;6.90;;;2.20;;
18881;SDS011;9573;50.948;11.600;2023-12-20T10:10:57;10.77;;;2.77;;
18881;SDS011;9573;50.948;11.600;2023-12-20T10:13:27;6.40;;;2.43;;
18881;SDS011;9573;50.948;11.600;2023-12-20T10:15:54;11.53;;;2.23;;
18881;SDS011;9573;50.948;11.600;2023-12-20T10:18:22;11.80;;;2.47;;
18881;SDS011;9573;50.948;11.600;2023-12-20T10:20:49;10.90;;;2.37;;
18881;SDS011;9573;50.948;11.600;2023-12-20T10:23:16;9.73;;;2.50;;
18881;SDS011;9573;50.948;11.600;2023-12-20T10:25:47;8.67;;;2.40;;
18881;SDS011;9573;50.948;11.600;2023-12-20T10:28:23;11.70;;;2.30;;
18881;SDS011;9573;50.948;11.600;2023-12-20T10:30:53;7.37;;;1.90;;
18881;SDS011;9573;50.948;11.600;2023-12-20T10:33:23;11.37;;;2.83;;
18881;SDS011;9573;50.948;11.600;2023-12-20T10:35:51;4.57;;;1.23;;
18881;SDS011;9573;50.948;11.600;2023-12-20T10:38:19;8.50;;;2.20;;
18881;SDS011;9573;50.948;11.600;2023-12-20T10:40:48;8.23;;;2.40;;
18881;SDS011;9573;50.948;11.600;2023-12-20T10:43:20;8.43;;;2.20;;
18881;SDS011;9573;50.948;11.600;2023-12-20T10:45:47;8.90;;;2.30;;
18881;SDS011;9573;50.948;11.600;2023-12-20T10:48:14;6.17;;;2.10;;
18881;SDS011;9573;50.948;11.600;2023-12-20T10:50:43;9.73;;;2.20;;
18881;SDS011;9573;50.948;11.600;2023-12-20T10:53:12;9.07;;;2.63;;
18881;SDS011;9573;50.948;11.600;2023-12-20T10:55:40;7.73;;;1.87;;
18881;SDS011;9573;50.948;11.600;2023-12-20T10:58:09;11.70;;;2.83;;
18881;SDS011;9573;50.948;11.600;2023-12-20T11:00:38;6.27;;;1.90;;
18881;SDS011;9573;50.948;11.600;2023-12-20T11:03:08;5.37;;;2.10;;
18881;SDS011;9573;50.948;11.600;2023-12-20T11:05:38;6.53;;;1.87;;
18881;SDS011;9573;50.948;11.600;2023-12-20T11:08:14;10.43;;;1.73;;
18881;SDS011;9573;50.948;11.600;2023-12-20T11:10:49;8.20;;;2.20;;
18881;SDS011;9573;50.948;11.600;2023-12-20T11:13:26;11.83;;;1.97;;
18881;SDS011;9573;50.948;11.600;2023-12-20T11:15:58;7.10;;;2.20;;
18881;SDS011;9573;50.948;11.600;2023-12-20T11:18:28;9.77;;;2.67;;
18881;SDS011;9573;50.948;11.600;2023-12-20T11:20:58;9.33;;;2.30;;
18881;SDS011;9573;50.948;11.600;2023-12-20T11:23:29;11.80;;;2.80;;
18881;SDS011;9573;50.948;11.600;2023-12-20T11:25:58;7.17;;;2.03;;
18881;SDS011;9573;50.948;11.600;2023-12-20T11:28:26;8.40;;;1.90;;
18881;SDS011;9573;50.948;11.600;2023-12-20T11:30:55;6.03;;;1.83;;
18881;SDS011;9573;50.948;11.600;2023-12-20T11:33:25;12.77;;;2.60;;
18881;SDS011;9573;50.948;11.600;2023-12-20T11:35:55;5.73;;;1.70;;
18881;SDS011;9573;50.948;11.600;2023-12-20T11:38:23;7.70;;;2.17;;
18881;SDS011;9573;50.948;11.600;2023-12-20T11:40:51;7.23;;;1.70;;
18881;SDS011;9573;50.948;11.600;2023-12-20T11:43:31;6.80;;;2.20;;
18881;SDS011;9573;50.948;11.600;2023-12-20T11:46:05;14.77;;;2.30;;
18881;SDS011;9573;50.948;11.600;2023-12-20T11:48:34;7.50;;;1.70;;
18881;SDS011;9573;50.948;11.600;2023-12-20T11:51:08;8.00;;;1.97;;
18881;SDS011;9573;50.948;11.600;2023-12-20T11:53:36;6.20;;;2.10;;
18881;SDS011;9573;50.948;11.600;2023-12-20T11:56:03;4.60;;;1.87;;
18881;SDS011;9573;50.948;11.600;2023-12-20T11:58:33;8.93;;;2.10;;
18881;SDS011;9573;50.948;11.600;2023-12-20T12:01:01;8.40;;;2.00;;
18881;SDS011;9573;50.948;11.600;2023-12-20T12:03:29;6.70;;;1.50;;
18881;SDS011;9573;50.948;11.600;2023-12-20T12:05:57;4.77;;;1.63;;
18881;SDS011;9573;50.948;11.600;2023-12-20T12:08:26;7.57;;;2.13;;
18881;SDS011;9573;50.948;11.600;2023-12-20T12:10:53;9.83;;;2.07;;
18881;SDS011;9573;50.948;11.600;2023-12-20T12:13:20;6.07;;;1.87;;
18881;SDS011;9573;50.948;11.600;2023-12-20T12:15:49;5.70;;;2.03;;
18881;SDS011;9573;50.948;11.600;2023-12-20T12:18:16;5.87;;;1.77;;
18881;SDS011;9573;50.948;11.600;2023-12-20T12:20:44;4.70;;;2.00;;
18881;SDS011;9573;50.948;11.600;2023-12-20T12:23:11;8.10;;;2.00;;
18881;SDS011;9573;50.948;11.600;2023-12-20T12:25:38;10.60;;;2.20;;
18881;SDS011;9573;50.948;11.600;2023-12-20T12:28:06;9.77;;;1.60;;
18881;SDS011;9573;50.948;11.600;2023-12-20T12:30:33;6.90;;;1.60;;
18881;SDS011;9573;50.948;11.600;2023-12-20T12:33:02;11.97;;;2.73;;
18881;SDS011;9573;50.948;11.600;2023-12-20T12:35:30;8.20;;;2.53;;
18881;SDS011;9573;50.948;11.600;2023-12-20T12:37:58;7.90;;;2.83;;
18881;SDS011;9573;50.948;11.600;2023-12-20T12:40:28;13.30;;;3.20;;
18881;SDS011;9573;50.948;11.600;2023-12-20T12:42:55;4.87;;;1.77;;
18881;SDS011;9573;50.948;11.600;2023-12-20T12:45:22;2.83;;;1.73;;
18881;SDS011;9573;50.948;11.600;2023-12-20T12:47:49;14.40;;;4.30;;
18881;SDS011;9573;50.948;11.600;2023-12-20T12:50:20;5.33;;;1.63;;
18881;SDS011;9573;50.948;11.600;2023-12-20T12:52:47;12.33;;;3.30;;
18881;SDS011;9573;50.948;11.600;2023-12-20T12:55:14;11.83;;;2.80;;
18881;SDS011;9573;50.948;11.600;2023-12-20T12:57:41;11.20;;;2.30;;
18881;SDS011;9573;50.948;11.600;2023-12-20T13:00:09;5.47;;;2.00;;
18881;SDS011;9573;50.948;11.600;2023-12-20T13:02:38;3.40;;;1.87;;
18881;SDS011;9573;50.948;11.600;2023-12-20T13:05:07;13.33;;;2.83;;
18881;SDS011;9573;50.948;11.600;2023-12-20T13:07:36;4.03;;;1.30;;
18881;SDS011;9573;50.948;11.600;2023-12-20T13:10:04;9.57;;;2.87;;
18881;SDS011;9573;50.948;11.600;2023-12-20T13:12:32;3.53;;;1.70;;
18881;SDS011;9573;50.948;11.600;2023-12-20T13:14:59;6.43;;;1.50;;
18881;SDS011;9573;50.948;11.600;2023-12-20T13:17:28;7.27;;;2.63;;
18881;SDS011;9573;50.948;11.600;2023-12-20T13:19:56;6.03;;;1.83;;
18881;SDS011;9573;50.948;11.600;2023-12-20T13:22:23;3.67;;;1.53;;
18881;SDS011;9573;50.948;11.600;2023-12-20T13:24:51;6.63;;;2.33;;
18881;SDS011;9573;50.948;11.600;2023-12-20T13:27:18;14.90;;;5.27;;
18881;SDS011;9573;50.948;11.600;2023-12-20T13:29:45;3.20;;;1.80;;
18881;SDS011;9573;50.948;11.600;2023-12-20T13:32:12;7.53;;;2.00;;
18881;SDS011;9573;50.948;11.600;2023-12-20T13:34:40;4.50;;;1.67;;
18881;SDS011;9573;50.948;11.600;2023-12-20T13:37:07;8.00;;;2.20;;
18881;SDS011;9573;50.948;11.600;2023-12-20T13:39:34;2.67;;;1.30;;
18881;SDS011;9573;50.948;11.600;2023-12-20T13:42:02;4.80;;;1.67;;
18881;SDS011;9573;50.948;11.600;2023-12-20T13:44:30;11.10;;;2.57;;
18881;SDS011;9573;50.948;11.600;2023-12-20T13:46:57;5.70;;;1.83;;
18881;SDS011;9573;50.948;11.600;2023-12-20T13:49:24;6.33;;;2.23;;
18881;SDS011;9573;50.948;11.600;2023-12-20T13:51:53;8.50;;;2.10;;
18881;SDS011;9573;50.948;11.600;2023-12-20T13:54:21;8.07;;;2.20;;
18881;SDS011;9573;50.948;11.600;2023-12-20T13:56:48;5.63;;;1.80;;
18881;SDS011;9573;50.948;11.600;2023-12-20T13:59:17;5.60;;;2.07;;
18881;SDS011;9573;50.948;11.600;2023-12-20T14:01:44;7.03;;;1.87;;
18881;SDS011;9573;50.948;11.600;2023-12-20T14:04:11;12.50;;;2.97;;
18881;SDS011;9573;50.948;11.600;2023-12-20T14:06:38;6.43;;;1.97;;
18881;SDS011;9573;50.948;11.600;2023-12-20T14:09:05;4.13;;;2.00;;
18881;SDS011;9573;50.948;11.600;2023-12-20T14:11:32;4.90;;;1.50;;
18881;SDS011;9573;50.948;11.600;2023-12-20T14:14:06;5.60;;;1.87;;
18881;SDS011;9573;50.948;11.600;2023-12-20T14:16:34;4.10;;;1.43;;
18881;SDS011;9573;50.948;11.600;2023-12-20T14:19:03;5.77;;;1.70;;
18881;SDS011;9573;50.948;11.600;2023-12-20T14:21:32;2.17;;;1.07;;
18881;SDS011;9573;50.948;11.600;2023-12-20T14:23:59;9.60;;;2.30;;
18881;SDS011;9573;50.948;11.600;2023-12-20T14:26:26;7.53;;;2.13;;
18881;SDS011;9573;50.948;11.600;2023-12-20T14:28:54;4.07;;;1.43;;
18881;SDS011;9573;50.948;11.600;2023-12-20T14:31:21;6.70;;;1.97;;
18881;SDS011;9573;50.948;11.600;2023-12-20T14:33:50;4.37;;;1.57;;
18881;SDS011;9573;50.948;11.600;2023-12-20T14:36:18;9.10;;;1.97;;
18881;SDS011;9573;50.948;11.600;2023-12-20T14:38:46;3.63;;;1.60;;
18881;SDS011;9573;50.948;11.600;2023-12-20T14:41:15;6.73;;;2.10;;
18881;SDS011;9573;50.948;11.600;2023-12-20T14:43:43;4.60;;;1.47;;
18881;SDS011;9573;50.948;11.600;2023-12-20T14:46:10;6.77;;;2.50;;
18881;SDS011;9573;50.948;11.600;2023-12-20T14:48:37;6.17;;;1.30;;